Time;durP1;ratioP1;P1;durP2;ratioP2;P2;SDS_P1;SDS_P2;PMS_P1;PMS_P2;Temp;Humidity;BMP_temperature;BMP_pressure;BME280_temperature;BME280_humidity;BME280_pressure;Samples;Min_cycle;Max_cycle;Signal;HPM_P1;HPM_P2
2021/10/15 00:00:29;;;;;;;6.05;3.15;;;13.70;99.90;;;;;;4131328;28;20033;-74
2021/10/15 00:02:30;;;;;;;5.38;3.10;;;13.60;99.90;;;;;;4129520;28;20491;-74
2021/10/15 00:04:30;;;;;;;8.82;3.63;;;13.60;99.90;;;;;;4128749;28;20117;-74
2021/10/15 00:06:31;;;;;;;7.53;3.00;;;13.60;99.90;;;;;;4125385;28;20058;-74
2021/10/15 00:08:32;;;;;;;8.15;3.25;;;13.50;99.90;;;;;;4128535;28;20041;-74
2021/10/15 00:10:32;;;;;;;11.82;3.72;;;13.50;99.90;;;;;;4131487;28;20026;-74
2021/10/15 00:12:36;;;;;;;7.18;3.55;;;13.50;99.90;;;;;;4133000;28;20371;-73
2021/10/15 00:14:37;;;;;;;7.20;3.47;;;13.50;99.90;;;;;;4130113;28;20034;-74
2021/10/15 00:16:38;;;;;;;6.28;3.40;;;13.50;99.90;;;;;;4132474;28;20216;-74
2021/10/15 00:18:39;;;;;;;8.10;3.42;;;13.50;99.90;;;;;;4129624;28;20480;-74
2021/10/15 00:20:39;;;;;;;8.38;3.60;;;13.50;99.90;;;;;;4129726;28;20057;-74
2021/10/15 00:22:40;;;;;;;7.00;3.25;;;13.50;99.90;;;;;;4134913;28;20030;-74
2021/10/15 00:24:41;;;;;;;6.47;3.53;;;13.50;99.90;;;;;;4128721;28;20573;-73
2021/10/15 00:26:41;;;;;;;6.55;3.38;;;13.50;99.90;;;;;;4130657;28;20117;-74
2021/10/15 00:28:42;;;;;;;7.97;3.58;;;13.40;99.90;;;;;;4137534;28;20731;-74
2021/10/15 00:30:42;;;;;;;11.38;3.55;;;13.50;99.90;;;;;;4136747;28;20026;-74
2021/10/15 00:32:43;;;;;;;8.85;3.67;;;13.50;99.90;;;;;;4134353;28;20483;-74
2021/10/15 00:34:43;;;;;;;7.22;3.47;;;13.50;99.90;;;;;;4129276;28;20041;-73
2021/10/15 00:36:44;;;;;;;6.47;3.50;;;13.40;99.90;;;;;;4134101;28;20026;-74
2021/10/15 00:38:45;;;;;;;7.55;3.72;;;13.40;99.90;;;;;;4128153;28;20033;-74
2021/10/15 00:40:46;;;;;;;11.45;3.80;;;13.40;99.90;;;;;;4125506;28;20027;-74
2021/10/15 00:42:47;;;;;;;8.63;4.00;;;13.40;99.90;;;;;;4129440;28;20042;-74
2021/10/15 00:44:47;;;;;;;8.57;3.53;;;13.40;99.90;;;;;;4132483;28;20072;-74
2021/10/15 00:46:48;;;;;;;6.22;3.58;;;13.30;99.90;;;;;;4132626;28;20038;-73
2021/10/15 00:48:49;;;;;;;8.70;3.80;;;13.30;99.90;;;;;;4129715;28;20026;-74
2021/10/15 00:50:49;;;;;;;7.13;3.55;;;13.30;99.90;;;;;;4131883;28;20092;-73
2021/10/15 00:52:50;;;;;;;9.27;3.38;;;13.30;99.90;;;;;;4126861;28;20049;-74
2021/10/15 00:54:51;;;;;;;8.23;3.65;;;13.30;99.90;;;;;;4137616;28;20091;-74
2021/10/15 00:56:53;;;;;;;7.38;3.88;;;13.30;99.90;;;;;;4131439;28;20054;-74
2021/10/15 00:58:55;;;;;;;10.95;3.95;;;13.30;99.90;;;;;;4129047;28;20054;-74
2021/10/15 01:00:56;;;;;;;7.05;3.85;;;13.30;99.90;;;;;;4126824;28;20045;-75
2021/10/15 01:02:57;;;;;;;8.32;3.95;;;13.30;99.90;;;;;;4136435;28;20038;-74
2021/10/15 01:04:58;;;;;;;6.32;4.13;;;13.20;99.90;;;;;;4131343;28;20401;-74
2021/10/15 01:06:59;;;;;;;10.70;3.67;;;13.30;99.90;;;;;;4128586;28;20038;-74
2021/10/15 01:09:00;;;;;;;10.93;4.13;;;13.20;99.90;;;;;;4130102;28;20565;-74
2021/10/15 01:11:01;;;;;;;8.82;3.40;;;13.20;99.90;;;;;;4135444;28;20030;-74
2021/10/15 01:13:01;;;;;;;9.77;4.10;;;13.20;99.90;;;;;;4131961;28;20165;-74
2021/10/15 01:15:03;;;;;;;7.03;4.10;;;13.20;99.90;;;;;;4138228;28;20045;-74
2021/10/15 01:17:05;;;;;;;9.85;3.60;;;13.20;99.90;;;;;;4133884;28;20061;-74
2021/10/15 01:19:05;;;;;;;6.63;3.72;;;13.10;99.90;;;;;;4135654;28;20065;-74
2021/10/15 01:21:08;;;;;;;10.88;3.88;;;13.10;99.90;;;;;;4130628;28;20084;-74
2021/10/15 01:23:10;;;;;;;8.05;4.13;;;13.00;99.90;;;;;;4140618;28;20121;-74
2021/10/15 01:25:11;;;;;;;8.65;4.10;;;13.00;99.90;;;;;;4138182;28;20146;-74
2021/10/15 01:27:11;;;;;;;6.20;3.10;;;13.00;99.90;;;;;;4138661;28;20467;-74
2021/10/15 01:29:12;;;;;;;7.93;4.05;;;13.00;99.90;;;;;;4137468;28;20046;-74
2021/10/15 01:31:13;;;;;;;8.05;3.90;;;13.00;99.90;;;;;;4124805;28;20512;-74
2021/10/15 01:33:14;;;;;;;8.60;4.15;;;12.90;99.90;;;;;;4139780;28;20038;-74
2021/10/15 01:35:14;;;;;;;9.60;3.50;;;13.00;99.90;;;;;;4135181;28;20046;-74
2021/10/15 01:37:15;;;;;;;9.18;3.85;;;13.00;99.90;;;;;;4135868;28;20033;-74
2021/10/15 01:39:16;;;;;;;10.60;4.18;;;12.80;99.90;;;;;;4136884;28;20042;-74
2021/10/15 01:41:17;;;;;;;8.52;4.00;;;12.90;99.90;;;;;;4134319;28;20049;-74
2021/10/15 01:43:27;;;;;;;8.85;3.78;;;12.90;99.90;;;;;;4136623;28;20113;-74
2021/10/15 01:45:29;;;;;;;8.45;4.30;;;12.90;99.90;;;;;;4135729;28;20413;-74
2021/10/15 01:47:30;;;;;;;10.00;4.10;;;12.90;99.90;;;;;;4139289;28;20640;-74
2021/10/15 01:49:30;;;;;;;8.15;3.97;;;12.90;99.90;;;;;;4136960;28;20053;-74
2021/10/15 01:51:31;;;;;;;8.38;4.50;;;12.90;99.90;;;;;;4137183;28;20060;-74
2021/10/15 01:53:32;;;;;;;10.50;4.72;;;12.90;99.90;;;;;;4132313;28;20034;-74
2021/10/15 01:55:32;;;;;;;10.27;4.60;;;12.90;99.90;;;;;;4137941;28;20042;-74
2021/10/15 01:57:33;;;;;;;8.20;3.60;;;12.80;99.90;;;;;;4138526;28;20046;-74
2021/10/15 01:59:34;;;;;;;7.60;4.30;;;12.80;99.90;;;;;;4137079;28;20118;-74
2021/10/15 02:01:34;;;;;;;8.48;3.85;;;12.80;99.90;;;;;;4137880;28;20034;-73
2021/10/15 02:03:35;;;;;;;7.30;4.10;;;12.80;99.90;;;;;;4139231;28;20023;-73
2021/10/15 02:05:36;;;;;;;6.05;3.63;;;12.70;99.90;;;;;;4137457;28;20061;-74
2021/10/15 02:07:37;;;;;;;10.98;4.72;;;12.70;99.90;;;;;;4137672;28;20038;-75
2021/10/15 02:09:38;;;;;;;8.27;4.43;;;12.70;99.90;;;;;;4138744;28;20728;-73
2021/10/15 02:11:38;;;;;;;6.53;3.92;;;12.70;99.90;;;;;;4136186;28;20092;-74
2021/10/15 02:13:39;;;;;;;11.95;4.55;;;12.70;99.90;;;;;;4139766;28;20048;-73
2021/10/15 02:15:40;;;;;;;8.55;4.03;;;12.70;99.90;;;;;;4137532;28;20042;-74
2021/10/15 02:17:41;;;;;;;8.23;4.32;;;12.70;99.90;;;;;;4136930;28;20072;-74
2021/10/15 02:19:42;;;;;;;10.10;4.20;;;12.70;99.90;;;;;;4135293;28;20037;-74
2021/10/15 02:21:42;;;;;;;9.57;4.03;;;12.60;99.90;;;;;;4136021;28;20429;-74
2021/10/15 02:23:45;;;;;;;9.60;4.60;;;12.60;99.90;;;;;;4137826;28;20514;-74
2021/10/15 02:25:45;;;;;;;7.35;4.13;;;12.60;99.90;;;;;;4139202;28;20073;-74
2021/10/15 02:27:47;;;;;;;9.32;4.40;;;12.60;99.90;;;;;;4120251;28;20030;-74
2021/10/15 02:29:47;;;;;;;8.90;4.72;;;12.60;99.90;;;;;;4135240;28;20054;-74
2021/10/15 02:31:48;;;;;;;6.63;4.30;;;12.50;99.90;;;;;;4133280;28;20061;-74
2021/10/15 02:33:48;;;;;;;7.82;4.35;;;12.60;99.90;;;;;;4134648;28;20147;-74
2021/10/15 02:35:49;;;;;;;11.10;4.80;;;12.60;99.90;;;;;;4135974;28;20120;-74
2021/10/15 02:37:50;;;;;;;9.13;4.78;;;12.60;99.90;;;;;;4136905;28;20045;-74
2021/10/15 02:39:51;;;;;;;7.90;4.38;;;12.60;99.90;;;;;;4137041;28;20038;-74
2021/10/15 02:41:51;;;;;;;9.75;4.50;;;12.50;99.90;;;;;;4136236;28;20049;-74
2021/10/15 02:43:52;;;;;;;8.02;4.18;;;12.50;99.90;;;;;;4136133;28;20038;-74
2021/10/15 02:45:52;;;;;;;10.30;4.05;;;12.60;99.90;;;;;;4135786;28;20084;-74
2021/10/15 02:47:53;;;;;;;11.02;5.18;;;12.60;99.90;;;;;;4139443;28;20497;-74
2021/10/15 02:49:54;;;;;;;8.45;4.50;;;12.60;99.90;;;;;;4137309;28;20037;-73
2021/10/15 02:51:54;;;;;;;12.38;4.32;;;12.60;99.90;;;;;;4138239;28;20030;-74
2021/10/15 02:53:55;;;;;;;7.20;4.05;;;12.60;99.90;;;;;;4135313;28;20033;-74
2021/10/15 02:55:55;;;;;;;10.85;4.30;;;12.60;99.90;;;;;;4133457;28;20064;-74
2021/10/15 02:57:56;;;;;;;7.18;4.55;;;12.60;99.90;;;;;;4135314;28;20441;-74
2021/10/15 02:59:57;;;;;;;11.10;4.63;;;12.60;99.90;;;;;;4136675;28;20121;-74
2021/10/15 03:01:57;;;;;;;9.73;4.90;;;12.70;99.90;;;;;;4137458;28;20415;-74
2021/10/15 03:03:58;;;;;;;10.82;4.30;;;12.70;99.90;;;;;;4137108;28;20363;-74
2021/10/15 03:05:59;;;;;;;8.93;4.35;;;12.60;99.90;;;;;;4136800;28;20049;-74
2021/10/15 03:07:59;;;;;;;6.88;4.28;;;12.70;99.90;;;;;;4136892;28;20034;-74
2021/10/15 03:10:00;;;;;;;8.30;4.65;;;12.60;99.90;;;;;;4137880;28;20102;-74
2021/10/15 03:12:00;;;;;;;7.05;4.15;;;12.60;99.90;;;;;;4132494;28;20030;-74
2021/10/15 03:14:01;;;;;;;9.07;4.90;;;12.70;99.90;;;;;;4134376;28;20097;-74
2021/10/15 03:16:01;;;;;;;8.65;4.60;;;12.70;99.90;;;;;;4132577;28;20025;-74
2021/10/15 03:18:02;;;;;;;8.98;4.50;;;12.60;99.90;;;;;;4136483;28;20044;-74
2021/10/15 03:20:04;;;;;;;9.55;5.00;;;12.60;99.90;;;;;;4136109;28;20053;-74
2021/10/15 03:22:05;;;;;;;12.50;5.30;;;12.60;99.90;;;;;;4138137;28;20054;-74
2021/10/15 03:24:06;;;;;;;9.50;4.80;;;12.60;99.90;;;;;;4133728;28;20038;-74
2021/10/15 03:26:06;;;;;;;11.45;5.10;;;12.60;99.90;;;;;;4137295;28;20061;-74
2021/10/15 03:28:07;;;;;;;8.70;4.82;;;12.60;99.90;;;;;;4119242;28;20065;-74
2021/10/15 03:30:08;;;;;;;9.00;4.72;;;12.60;99.90;;;;;;4136371;28;20034;-74
2021/10/15 03:32:09;;;;;;;9.82;4.65;;;12.60;99.90;;;;;;4132030;28;20038;-74
2021/10/15 03:34:09;;;;;;;11.70;4.90;;;12.60;99.90;;;;;;4136377;28;20144;-74
2021/10/15 03:36:10;;;;;;;8.07;4.32;;;12.60;99.90;;;;;;4135202;28;20038;-74
2021/10/15 03:38:10;;;;;;;10.70;4.50;;;12.50;99.90;;;;;;4137890;28;20076;-74
2021/10/15 03:40:11;;;;;;;7.93;4.65;;;12.50;99.90;;;;;;4135631;28;20032;-74
2021/10/15 03:42:12;;;;;;;11.98;5.20;;;12.50;99.90;;;;;;4137251;28;20441;-74
2021/10/15 03:44:12;;;;;;;10.13;4.65;;;12.50;99.90;;;;;;4136437;28;20061;-74
2021/10/15 03:46:13;;;;;;;10.05;5.20;;;12.50;99.90;;;;;;4135932;28;20087;-74
2021/10/15 03:48:14;;;;;;;8.63;5.07;;;12.50;99.90;;;;;;4134732;28;20033;-74
2021/10/15 03:50:14;;;;;;;9.10;4.65;;;12.50;99.90;;;;;;4135206;28;20087;-74
2021/10/15 03:52:15;;;;;;;19.23;5.10;;;12.60;99.90;;;;;;4135113;28;20034;-74
2021/10/15 03:54:16;;;;;;;10.73;4.85;;;12.60;99.90;;;;;;4136586;28;20037;-74
2021/10/15 03:56:16;;;;;;;8.68;4.65;;;12.60;99.90;;;;;;4135293;28;20112;-74
2021/10/15 03:58:17;;;;;;;9.23;4.85;;;12.60;99.90;;;;;;4132544;28;20530;-74
2021/10/15 04:00:17;;;;;;;9.20;4.43;;;12.60;99.90;;;;;;4137072;28;20809;-74
2021/10/15 04:02:18;;;;;;;9.38;4.85;;;12.50;99.90;;;;;;4134178;28;20056;-75
2021/10/15 04:04:19;;;;;;;9.43;4.88;;;12.50;99.90;;;;;;4134950;28;20038;-74
2021/10/15 04:06:19;;;;;;;9.25;4.97;;;12.60;99.90;;;;;;4136636;28;20045;-75
2021/10/15 04:08:20;;;;;;;8.15;4.80;;;12.50;99.90;;;;;;4135150;28;20034;-74
2021/10/15 04:10:20;;;;;;;10.45;5.72;;;12.50;99.90;;;;;;4134057;28;20088;-74
2021/10/15 04:12:21;;;;;;;11.65;5.20;;;12.50;99.90;;;;;;4134705;28;20766;-74
2021/10/15 04:14:23;;;;;;;9.10;4.80;;;12.50;99.90;;;;;;4134837;28;20042;-74
2021/10/15 04:16:23;;;;;;;9.40;4.47;;;12.50;99.90;;;;;;4133364;28;20038;-74
2021/10/15 04:18:24;;;;;;;11.40;5.20;;;12.60;99.90;;;;;;4136531;28;20125;-74
2021/10/15 04:20:24;;;;;;;8.02;4.90;;;12.60;99.90;;;;;;4135801;28;20109;-74
2021/10/15 04:22:25;;;;;;;10.10;5.32;;;12.50;99.90;;;;;;4134409;28;20047;-74
2021/10/15 04:24:26;;;;;;;15.32;5.10;;;12.50;99.90;;;;;;4137454;28;20073;-74
2021/10/15 04:26:26;;;;;;;9.95;5.35;;;12.40;99.90;;;;;;4134231;28;20096;-74
2021/10/15 04:28:27;;;;;;;11.27;5.35;;;12.50;99.90;;;;;;4135737;28;20030;-74
2021/10/15 04:30:27;;;;;;;10.95;5.00;;;12.50;99.90;;;;;;4135579;28;20034;-74
2021/10/15 04:32:29;;;;;;;11.55;5.03;;;12.50;99.90;;;;;;4135276;28;20044;-74
2021/10/15 04:34:29;;;;;;;7.82;4.25;;;12.50;99.90;;;;;;4136555;28;20125;-74
2021/10/15 04:36:31;;;;;;;7.18;4.82;;;12.50;99.90;;;;;;4136700;28;20096;-74
2021/10/15 04:38:32;;;;;;;11.30;4.93;;;12.50;99.90;;;;;;4134397;28;20062;-75
2021/10/15 04:40:33;;;;;;;7.45;4.90;;;12.50;99.90;;;;;;4132641;28;20129;-74
2021/10/15 04:42:36;;;;;;;11.70;4.65;;;12.50;99.90;;;;;;4133610;28;20037;-74
2021/10/15 04:44:36;;;;;;;8.75;5.13;;;12.50;99.90;;;;;;4140896;28;20062;-74
2021/10/15 04:46:37;;;;;;;12.48;4.90;;;12.50;99.90;;;;;;4137651;28;20029;-74
2021/10/15 04:48:37;;;;;;;8.93;4.80;;;12.50;99.90;;;;;;4135862;28;20072;-74
2021/10/15 04:50:38;;;;;;;10.13;4.75;;;12.40;99.90;;;;;;4137510;28;20037;-75
2021/10/15 04:52:39;;;;;;;8.10;4.70;;;12.50;99.90;;;;;;4138509;28;20022;-74
2021/10/15 04:54:39;;;;;;;11.70;5.07;;;12.50;99.90;;;;;;4136887;28;20026;-74
2021/10/15 04:56:40;;;;;;;9.57;4.70;;;12.40;99.90;;;;;;4136635;28;20034;-75
2021/10/15 04:58:41;;;;;;;8.63;4.90;;;12.40;99.90;;;;;;4137154;28;20056;-75
2021/10/15 05:00:41;;;;;;;11.82;5.95;;;12.40;99.90;;;;;;4140387;28;20079;-74
2021/10/15 05:02:42;;;;;;;9.70;4.90;;;12.50;99.90;;;;;;4137912;28;20038;-74
2021/10/15 05:04:42;;;;;;;8.75;4.93;;;12.50;99.90;;;;;;4136051;28;20161;-74
2021/10/15 05:06:43;;;;;;;11.45;4.50;;;12.50;99.90;;;;;;4137703;28;20035;-75
2021/10/15 05:08:59;;;;;;;9.93;5.05;;;12.50;99.90;;;;;;4135465;28;20498;-74
2021/10/15 05:11:00;;;;;;;8.70;4.43;;;12.50;99.90;;;;;;4126629;28;20712;-74
2021/10/15 05:13:00;;;;;;;10.15;4.95;;;12.50;99.90;;;;;;4135398;28;20034;-74
2021/10/15 05:15:01;;;;;;;11.27;5.00;;;12.50;99.90;;;;;;4135873;28;20084;-74
2021/10/15 05:17:02;;;;;;;11.00;5.72;;;12.50;99.90;;;;;;4134551;28;20406;-73
2021/10/15 05:19:03;;;;;;;10.15;4.80;;;12.40;99.90;;;;;;4139312;28;20026;-73
2021/10/15 05:21:04;;;;;;;7.90;4.82;;;12.40;99.90;;;;;;4136170;28;20641;-73
2021/10/15 05:23:04;;;;;;;11.50;5.75;;;12.50;99.90;;;;;;4129913;28;20525;-73
2021/10/15 05:25:07;;;;;;;8.52;4.47;;;12.40;99.90;;;;;;4144935;28;20040;-72
2021/10/15 05:27:08;;;;;;;12.93;5.30;;;12.40;99.90;;;;;;4135504;28;20026;-73
2021/10/15 05:29:08;;;;;;;8.90;5.57;;;12.40;99.90;;;;;;4137909;28;20057;-73
2021/10/15 05:31:09;;;;;;;11.23;5.80;;;12.40;99.90;;;;;;4138092;28;20026;-73
2021/10/15 05:33:09;;;;;;;8.27;4.50;;;12.40;99.90;;;;;;4147576;28;20034;-73
2021/10/15 05:35:10;;;;;;;9.85;5.07;;;12.40;99.90;;;;;;4141385;28;20034;-73
2021/10/15 05:37:11;;;;;;;9.38;5.30;;;12.40;99.90;;;;;;4134881;28;20038;-73
2021/10/15 05:39:11;;;;;;;10.48;5.05;;;12.40;99.90;;;;;;4138932;28;20034;-73
2021/10/15 05:41:14;;;;;;;6.97;4.72;;;12.40;99.90;;;;;;4126686;28;20035;-73
2021/10/15 05:43:15;;;;;;;10.02;4.93;;;12.40;99.90;;;;;;4099307;28;20035;-71
2021/10/15 05:45:16;;;;;;;11.45;5.40;;;12.50;99.90;;;;;;4136660;28;20099;-71
2021/10/15 05:47:17;;;;;;;7.68;4.63;;;12.50;99.90;;;;;;4138343;28;20050;-70
2021/10/15 05:49:18;;;;;;;14.05;5.68;;;12.50;99.90;;;;;;4135575;28;20046;-71
2021/10/15 05:51:19;;;;;;;9.98;5.28;;;12.50;99.90;;;;;;4139526;28;20052;-71
2021/10/15 05:53:21;;;;;;;10.95;4.97;;;12.50;99.90;;;;;;4137509;28;20030;-70
2021/10/15 05:56:21;;;;;;;7.30;4.78;;;12.50;99.90;;;;;;4129292;28;20368;-71
2021/10/15 05:59:58;;;;;;;10.43;4.78;;;12.60;99.90;;;;;;4134900;28;20082;-70
2021/10/15 06:02:04;;;;;;;12.43;5.75;;;12.60;99.90;;;;;;4137947;28;20117;-71
2021/10/15 06:08:04;;;;;;;8.13;4.35;;;12.60;99.90;;;;;;4147700;28;20037;-71
2021/10/15 06:15:35;;;;;;;7.97;4.43;;;12.60;99.90;;;;;;4136695;28;20466;-70
2021/10/15 06:17:43;;;;;;;11.82;5.00;;;12.60;99.90;;;;;;4134824;28;20026;-71
2021/10/15 06:21:48;;;;;;;10.43;5.15;;;12.70;99.90;;;;;;4124639;28;20039;-71
2021/10/15 06:23:48;;;;;;;10.38;5.22;;;12.70;99.90;;;;;;4129342;28;20037;-72
2021/10/15 06:25:49;;;;;;;7.00;4.18;;;12.70;99.90;;;;;;4119274;28;20074;-72
2021/10/15 06:27:49;;;;;;;9.73;4.68;;;12.70;99.90;;;;;;4134180;28;20582;-72
2021/10/15 06:29:50;;;;;;;8.90;4.70;;;12.70;99.90;;;;;;4138060;28;20093;-72
2021/10/15 06:31:50;;;;;;;9.18;5.10;;;12.70;99.90;;;;;;4130473;28;20034;-72
2021/10/15 06:33:51;;;;;;;9.18;5.15;;;12.70;99.90;;;;;;4134745;28;20033;-72
2021/10/15 06:35:52;;;;;;;8.77;5.00;;;12.70;99.90;;;;;;4140849;28;20114;-72
2021/10/15 06:37:52;;;;;;;9.30;4.65;;;12.70;99.90;;;;;;4136608;28;20560;-72
2021/10/15 06:39:53;;;;;;;8.38;4.63;;;12.70;99.90;;;;;;4134051;28;20105;-72
2021/10/15 06:41:54;;;;;;;8.57;4.03;;;12.80;99.90;;;;;;4136375;28;20032;-71
2021/10/15 06:43:54;;;;;;;8.25;4.50;;;12.80;99.90;;;;;;4110974;28;20396;-72
2021/10/15 06:45:55;;;;;;;8.43;5.03;;;12.80;99.90;;;;;;4127099;28;20117;-72
2021/10/15 06:47:55;;;;;;;7.65;4.53;;;12.80;99.90;;;;;;4143798;28;20562;-72
2021/10/15 06:49:56;;;;;;;11.18;5.40;;;12.80;99.90;;;;;;4136975;28;20034;-72
2021/10/15 06:51:57;;;;;;;10.18;4.63;;;12.80;99.90;;;;;;4130944;28;20054;-72
2021/10/15 06:53:58;;;;;;;10.18;4.60;;;12.80;99.90;;;;;;4140055;28;20038;-72
2021/10/15 06:55:58;;;;;;;10.48;5.13;;;12.80;99.90;;;;;;4135264;28;20056;-72
2021/10/15 06:57:59;;;;;;;12.93;5.70;;;12.80;99.90;;;;;;4137782;28;20411;-72
2021/10/15 06:59:59;;;;;;;7.68;4.95;;;12.80;99.90;;;;;;4140503;28;20045;-72
2021/10/15 07:02:00;;;;;;;13.65;5.57;;;12.70;99.90;;;;;;4141614;28;20055;-72
2021/10/15 07:04:01;;;;;;;8.38;4.88;;;12.70;99.90;;;;;;4129631;28;20026;-72
2021/10/15 07:06:02;;;;;;;11.73;5.30;;;12.80;99.90;;;;;;4132162;28;20046;-72
2021/10/15 07:08:03;;;;;;;9.98;4.72;;;12.80;99.90;;;;;;4131861;28;20030;-72
2021/10/15 07:10:05;;;;;;;7.57;4.60;;;12.80;99.90;;;;;;4118004;28;20507;-71
2021/10/15 07:12:06;;;;;;;11.02;5.60;;;12.80;99.90;;;;;;4136011;28;20033;-71
2021/10/15 07:14:06;;;;;;;11.52;4.90;;;12.80;99.90;;;;;;4131793;28;20691;-72
2021/10/15 07:16:08;;;;;;;9.52;5.03;;;12.80;99.90;;;;;;4135444;28;20034;-72
2021/10/15 07:18:09;;;;;;;14.57;5.35;;;12.80;99.90;;;;;;4136344;28;20507;-72
2021/10/15 07:20:10;;;;;;;13.35;5.57;;;12.80;99.90;;;;;;4116498;28;20033;-72
2021/10/15 07:22:11;;;;;;;12.75;5.50;;;12.80;99.90;;;;;;4131131;28;20081;-72
2021/10/15 07:24:11;;;;;;;11.02;5.53;;;12.90;99.90;;;;;;4129204;28;20381;-72
2021/10/15 07:26:12;;;;;;;8.70;4.97;;;12.90;99.90;;;;;;4134776;28;20045;-72
2021/10/15 07:28:14;;;;;;;9.95;4.93;;;12.90;99.90;;;;;;4133301;28;20071;-72
2021/10/15 07:30:14;;;;;;;11.02;5.78;;;12.90;99.90;;;;;;4135867;28;20454;-72
2021/10/15 07:32:15;;;;;;;9.55;4.82;;;13.00;99.90;;;;;;4132278;28;20042;-72
2021/10/15 07:34:16;;;;;;;11.20;5.28;;;13.00;99.90;;;;;;4130332;28;20066;-72
2021/10/15 07:36:16;;;;;;;12.25;6.35;;;13.00;99.90;;;;;;4134209;28;20088;-72
2021/10/15 07:38:17;;;;;;;14.77;5.38;;;12.90;99.90;;;;;;4137674;28;20070;-72
2021/10/15 07:40:18;;;;;;;12.32;6.10;;;13.00;99.90;;;;;;4137359;28;20029;-72
2021/10/15 07:42:18;;;;;;;8.93;4.93;;;12.90;99.90;;;;;;4133537;28;20038;-72
2021/10/15 07:44:19;;;;;;;9.77;4.85;;;13.00;99.90;;;;;;4134339;28;20041;-72
2021/10/15 07:46:20;;;;;;;10.50;4.80;;;13.00;99.90;;;;;;4135760;28;20038;-72
2021/10/15 07:48:21;;;;;;;9.45;5.20;;;13.00;99.90;;;;;;4127204;28;20026;-72
2021/10/15 07:50:22;;;;;;;11.48;5.72;;;13.10;99.90;;;;;;4127234;28;20479;-72
2021/10/15 07:52:23;;;;;;;8.25;5.05;;;13.10;99.90;;;;;;4126591;28;20034;-72
2021/10/15 07:54:23;;;;;;;10.95;6.13;;;13.10;99.90;;;;;;4136773;28;20611;-72
2021/10/15 07:56:24;;;;;;;12.30;5.40;;;13.20;99.90;;;;;;4132768;28;20038;-72
2021/10/15 07:58:25;;;;;;;10.10;5.82;;;13.20;99.90;;;;;;4129279;28;20096;-72
2021/10/15 08:00:25;;;;;;;9.18;5.45;;;13.20;99.90;;;;;;4132362;28;20053;-72
2021/10/15 08:02:26;;;;;;;8.73;5.65;;;13.20;99.90;;;;;;4139402;28;20041;-73
2021/10/15 08:04:27;;;;;;;13.18;7.30;;;13.30;99.90;;;;;;4128927;28;20030;-72
2021/10/15 08:06:27;;;;;;;13.60;6.88;;;13.30;99.90;;;;;;4130062;28;20092;-72
2021/10/15 08:08:28;;;;;;;13.48;6.70;;;13.30;99.90;;;;;;4139054;28;20042;-72
2021/10/15 08:10:28;;;;;;;13.25;6.38;;;13.30;99.90;;;;;;4142155;28;20038;-73
2021/10/15 08:12:30;;;;;;;19.80;7.32;;;13.40;99.90;;;;;;4137556;28;20723;-73
2021/10/15 08:14:30;;;;;;;13.48;6.72;;;13.40;99.90;;;;;;4139344;28;20146;-72
2021/10/15 08:16:31;;;;;;;10.20;5.80;;;13.40;99.90;;;;;;4124014;28;20026;-72
2021/10/15 08:18:32;;;;;;;10.63;6.50;;;13.40;99.90;;;;;;4135538;28;20039;-72
2021/10/15 08:20:33;;;;;;;11.10;6.15;;;13.40;99.90;;;;;;4138690;28;20038;-72
2021/10/15 08:22:33;;;;;;;13.23;7.13;;;13.40;99.90;;;;;;4139652;28;20034;-72
2021/10/15 08:24:34;;;;;;;10.70;5.95;;;13.50;99.90;;;;;;4134015;28;20045;-72
2021/10/15 08:26:35;;;;;;;9.98;6.13;;;13.50;99.90;;;;;;4134862;28;20050;-72
2021/10/15 08:28:35;;;;;;;14.73;6.57;;;13.50;99.90;;;;;;4133350;28;20030;-72
2021/10/15 08:30:36;;;;;;;11.38;6.75;;;13.50;99.90;;;;;;4128526;28;20080;-72
2021/10/15 08:32:37;;;;;;;12.75;7.15;;;13.50;99.90;;;;;;4137798;28;20495;-72
2021/10/15 08:34:37;;;;;;;15.02;7.47;;;13.60;99.90;;;;;;4134058;28;20034;-72
2021/10/15 08:36:41;;;;;;;14.45;8.25;;;13.60;99.90;;;;;;4131862;28;20138;-73
2021/10/15 08:38:42;;;;;;;13.73;7.25;;;13.50;99.90;;;;;;4131130;28;20808;-73
2021/10/15 08:40:46;;;;;;;14.77;6.95;;;13.50;99.90;;;;;;4130907;28;20062;-73
2021/10/15 08:42:52;;;;;;;13.75;7.20;;;13.50;99.90;;;;;;4137117;28;20494;-73
2021/10/15 08:44:52;;;;;;;12.90;8.15;;;13.50;99.90;;;;;;4134433;28;20828;-72
2021/10/15 08:46:54;;;;;;;13.05;6.95;;;13.40;99.90;;;;;;4135391;28;20034;-73
2021/10/15 08:48:55;;;;;;;14.63;7.40;;;13.40;99.90;;;;;;4136368;28;20526;-72
2021/10/15 08:50:57;;;;;;;13.25;8.25;;;13.30;99.90;;;;;;4136170;28;20041;-73
2021/10/15 08:52:58;;;;;;;12.52;7.78;;;13.30;99.90;;;;;;4135747;28;20050;-72
2021/10/15 08:54:59;;;;;;;13.10;6.95;;;13.30;99.90;;;;;;4131687;28;20518;-72
2021/10/15 08:57:00;;;;;;;12.18;7.03;;;13.30;99.90;;;;;;4127735;28;24531;-72
2021/10/15 08:59:05;;;;;;;13.52;7.55;;;13.30;99.90;;;;;;4112219;28;20035;-72
2021/10/15 09:01:06;;;;;;;14.00;7.10;;;13.20;99.90;;;;;;4132605;28;20049;-74
2021/10/15 09:03:17;;;;;;;13.80;7.60;;;13.20;99.90;;;;;;4136105;28;20022;-72
2021/10/15 09:05:28;;;;;;;11.57;7.68;;;13.20;99.90;;;;;;4133989;28;20045;-72
2021/10/15 09:07:28;;;;;;;11.90;7.40;;;13.20;99.90;;;;;;4133027;28;20136;-71
2021/10/15 09:09:29;;;;;;;9.38;6.65;;;13.20;99.90;;;;;;4130846;28;20050;-71
2021/10/15 09:11:30;;;;;;;15.70;7.40;;;13.30;99.90;;;;;;4133804;28;20088;-71
2021/10/15 09:13:31;;;;;;;9.93;6.50;;;13.30;99.90;;;;;;4135950;28;20068;-71
2021/10/15 09:15:32;;;;;;;12.50;7.68;;;13.30;99.90;;;;;;4133592;28;20593;-71
2021/10/15 09:17:36;;;;;;;12.45;6.50;;;13.40;99.90;;;;;;4133516;28;20064;-72
2021/10/15 09:19:46;;;;;;;10.95;6.28;;;13.30;99.90;;;;;;4138970;28;20037;-72
2021/10/15 09:22:01;;;;;;;8.68;6.18;;;13.40;99.90;;;;;;4140700;28;20100;-72
2021/10/15 09:24:02;;;;;;;10.77;6.07;;;13.40;99.90;;;;;;4133515;28;20033;-72
2021/10/15 09:26:04;;;;;;;11.30;6.43;;;13.40;99.90;;;;;;4136175;28;20042;-72
2021/10/15 09:28:13;;;;;;;7.07;4.50;;;13.40;99.90;;;;;;4135111;28;20126;-72
2021/10/15 09:30:20;;;;;;;5.30;3.58;;;13.40;99.90;;;;;;4135149;28;20281;-72
2021/10/15 09:32:24;;;;;;;4.72;2.53;;;13.30;99.90;;;;;;4137742;28;20035;-72
2021/10/15 09:34:24;;;;;;;3.05;2.03;;;13.30;99.90;;;;;;4136340;28;20697;-72
2021/10/15 09:36:25;;;;;;;3.22;1.63;;;13.30;99.90;;;;;;4135591;28;20041;-72
2021/10/15 09:38:26;;;;;;;1.85;1.60;;;13.40;99.90;;;;;;4137421;28;20039;-72
2021/10/15 09:40:34;;;;;;;2.97;1.63;;;13.30;99.90;;;;;;4136464;28;20048;-72
2021/10/15 09:42:37;;;;;;;2.45;1.55;;;13.40;99.90;;;;;;4133827;28;20116;-72
2021/10/15 09:44:40;;;;;;;3.55;1.30;;;13.40;99.90;;;;;;4137326;28;20030;-72
2021/10/15 09:46:40;;;;;;;3.88;1.30;;;13.30;99.90;;;;;;4120092;28;20407;-72
2021/10/15 09:48:51;;;;;;;2.42;1.20;;;13.30;99.90;;;;;;4134645;28;20040;-72
2021/10/15 09:51:15;;;;;;;1.65;1.00;;;13.30;99.90;;;;;;4139347;28;20030;-72
2021/10/15 09:53:15;;;;;;;1.65;1.00;;;13.40;99.90;;;;;;4137894;28;20041;-72
2021/10/15 09:55:36;;;;;;;1.65;0.90;;;13.40;99.90;;;;;;4138341;28;20578;-72
2021/10/15 09:57:39;;;;;;;0.95;0.68;;;13.40;99.90;;;;;;4133676;28;20051;-72
2021/10/15 09:59:43;;;;;;;1.88;0.93;;;13.40;99.90;;;;;;4137739;28;20038;-72
2021/10/15 10:01:43;;;;;;;2.33;1.00;;;13.50;99.90;;;;;;4135792;28;20049;-72
2021/10/15 10:03:46;;;;;;;4.85;1.00;;;13.40;99.90;;;;;;4138116;28;20038;-72
2021/10/15 10:05:46;;;;;;;1.17;0.73;;;13.50;99.90;;;;;;4126209;28;20038;-72
2021/10/15 10:07:50;;;;;;;1.27;0.75;;;13.40;99.90;;;;;;4134185;28;20389;-72
2021/10/15 10:09:51;;;;;;;1.00;0.70;;;13.50;99.90;;;;;;4137137;28;20604;-72
2021/10/15 10:11:52;;;;;;;2.88;0.73;;;13.40;99.90;;;;;;4139417;28;20035;-72
2021/10/15 10:13:53;;;;;;;2.92;0.90;;;13.40;99.90;;;;;;4134792;28;20080;-72
2021/10/15 10:15:54;;;;;;;2.03;0.80;;;13.40;99.90;;;;;;4137824;28;20565;-72
2021/10/15 10:18:00;;;;;;;2.35;0.93;;;13.40;99.90;;;;;;4135384;28;20149;-72
2021/10/15 10:20:09;;;;;;;2.00;0.95;;;13.40;99.90;;;;;;4137708;28;20037;-72
2021/10/15 10:22:10;;;;;;;0.98;0.57;;;13.40;99.90;;;;;;4135640;28;20072;-72
2021/10/15 10:24:17;;;;;;;0.88;0.57;;;13.40;99.90;;;;;;4140487;28;20100;-72
2021/10/15 10:26:21;;;;;;;5.45;0.90;;;13.30;99.90;;;;;;4133385;28;20049;-72
2021/10/15 10:28:22;;;;;;;1.13;0.50;;;13.30;99.90;;;;;;4136344;28;20156;-72
2021/10/15 10:30:38;;;;;;;1.85;0.70;;;13.40;99.90;;;;;;4129100;28;20038;-72
2021/10/15 10:32:39;;;;;;;3.92;0.68;;;13.40;99.90;;;;;;4136730;28;20072;-72
2021/10/15 10:34:41;;;;;;;1.80;0.75;;;13.50;99.90;;;;;;4137712;28;20046;-72
2021/10/15 10:36:42;;;;;;;3.25;0.68;;;13.50;99.90;;;;;;4139202;28;20485;-72
2021/10/15 10:38:43;;;;;;;0.98;0.55;;;13.50;99.90;;;;;;4135225;28;20651;-72
2021/10/15 10:41:02;;;;;;;2.10;0.95;;;13.50;99.90;;;;;;4134846;28;20049;-72
2021/10/15 10:43:03;;;;;;;2.17;0.77;;;13.50;99.90;;;;;;4137198;28;20037;-72